Time;durP1;ratioP1;P1;durP2;ratioP2;P2;SDS_P1;SDS_P2;PMS_P1;PMS_P2;Temp;Humidity;BMP_temperature;BMP_pressure;BME280_temperature;BME280_humidity;BME280_pressure;Samples;Min_cycle;Max_cycle;Signal;HPM_P1;HPM_P2
2023/01/17 00:00:04;;;;;;;7.32;5.15;;;;;;;18.53;61.71;96542.59;2088957;28;19931;-50
2023/01/17 00:01:07;;;;;;;10.23;6.07;;;;;;;18.58;61.57;96539.16;2088049;28;20569;-48
2023/01/17 00:02:09;;;;;;;7.43;5.70;;;;;;;18.61;61.75;96535.94;2087061;28;20044;-47
2023/01/17 00:03:11;;;;;;;7.90;5.28;;;;;;;18.62;61.35;96527.66;2086177;28;20044;-47
2023/01/17 00:10:50;;;;;;;10.50;5.93;;;;;;;18.65;61.66;96532.50;2083436;28;20492;-47
2023/01/17 00:11:51;;;;;;;7.53;5.40;;;;;;;18.69;61.24;96540.84;2089401;28;20041;-47
2023/01/17 00:12:54;;;;;;;;;;;;;;;18.60;61.52;96534.34;2089142;28;20056;-49
2023/01/17 00:13:54;;;;;;;9.23;5.45;;;;;;;18.64;61.51;96540.84;2083386;28;19966;-48
2023/01/17 00:14:57;;;;;;;;;;;;;;;18.58;61.66;96539.16;2085959;28;20059;-48
2023/01/17 00:15:58;;;;;;;10.15;5.80;;;;;;;18.60;61.75;96527.09;2089502;28;19929;-51
2023/01/17 00:17:00;;;;;;;;;;;;;;;18.53;61.71;96535.34;2095657;28;20048;-47
2023/01/17 00:18:03;;;;;;;7.05;5.47;;;;;;;18.60;61.89;96531.66;2094888;28;20596;-48
2023/01/17 00:26:03;;;;;;;8.90;5.65;;;;;;;18.65;61.36;96537.06;2097778;28;20051;-46
2023/01/17 01:33:52;;;;;;;8.57;5.15;;;;;;;18.31;61.87;96567.59;2087826;28;20136;-46
2023/01/17 01:34:53;;;;;;;9.10;5.47;;;;;;;18.33;61.67;96566.53;2086640;28;20696;-46
2023/01/17 01:35:56;;;;;;;;;;;;;;;18.20;62.21;96565.88;2085302;28;20143;-46
2023/01/17 01:36:56;;;;;;;7.07;4.60;;;;;;;18.24;62.16;96574.22;2089187;28;19928;-50
2023/01/17 01:37:58;;;;;;;;;;;;;;;18.16;62.26;96578.16;2088041;28;20965;-48
2023/01/17 01:38:59;;;;;;;7.80;5.57;;;;;;;18.19;61.96;96576.84;2087326;28;19946;-47
2023/01/17 01:40:00;;;;;;;;;;;;;;;18.12;62.15;96573.56;2089684;28;20059;-47
2023/01/17 01:41:01;;;;;;;8.25;5.20;;;;;;;18.17;62.00;96579.00;2089023;28;19928;-47
2023/01/17 01:42:02;;;;;;;;;;;;;;;18.07;62.23;96580.47;2087767;28;20048;-46
2023/01/17 01:43:04;;;;;;;12.05;5.25;;;;;;;18.12;62.23;96570.88;2086543;28;19939;-46
2023/01/17 01:44:39;;;;;;;7.78;5.22;;;;;;;18.18;62.09;96570.66;2088562;28;20053;-46
2023/01/17 01:45:45;;;;;;;7.03;5.70;;;;;;;18.17;62.14;96570.94;2088857;28;20437;-47
2023/01/17 01:46:47;;;;;;;5.60;4.57;;;;;;;18.20;62.01;96570.44;2090435;28;20063;-46
2023/01/17 01:47:50;;;;;;;6.80;4.47;;;;;;;18.19;62.11;96569.63;2082991;28;20044;-50
2023/01/17 01:48:55;;;;;;;7.47;5.60;;;;;;;18.19;61.96;96571.47;2087647;28;20052;-46
2023/01/17 01:49:58;;;;;;;6.65;5.15;;;;;;;18.18;61.73;96570.66;2088363;28;20048;-47
2023/01/17 01:51:05;;;;;;;7.65;5.47;;;;;;;18.18;62.03;96575.22;2087683;28;20175;-48
2023/01/17 01:52:09;;;;;;;9.40;5.82;;;;;;;18.18;62.00;96575.22;2087150;28;20269;-46
2023/01/17 01:53:11;;;;;;;7.15;5.47;;;;;;;18.19;61.85;96571.47;2090641;28;20052;-47
2023/01/17 01:54:18;;;;;;;6.10;5.30;;;;;;;18.20;61.77;96567.75;2085736;28;20059;-47
2023/01/17 01:55:25;;;;;;;7.22;4.38;;;;;;;18.17;61.89;96574.44;2088086;28;20063;-50
2023/01/17 01:56:28;;;;;;;5.05;4.38;;;;;;;18.16;62.06;96572.78;2088328;28;20048;-46
2023/01/17 01:57:33;;;;;;;7.13;4.88;;;;;;;18.16;61.82;96571.97;2086612;28;22456;-47
2023/01/17 01:58:36;;;;;;;8.82;5.60;;;;;;;18.16;61.91;96577.34;2086922;28;21067;-46
2023/01/17 01:59:40;;;;;;;7.18;5.07;;;;;;;18.12;61.87;96568.19;2088726;28;20048;-47
2023/01/17 02:00:42;;;;;;;8.48;5.10;;;;;;;18.12;62.04;96555.59;2087282;28;20083;-48
2023/01/17 02:01:43;;;;;;;8.35;5.30;;;;;;;18.12;61.85;96557.47;2091671;28;20056;-47
2023/01/17 02:02:46;;;;;;;;;;;;;;;18.00;62.18;96562.97;2089495;28;20043;-46
2023/01/17 02:03:48;;;;;;;6.53;4.97;;;;;;;18.04;62.37;96569.44;2085832;28;19935;-50
2023/01/17 02:04:50;;;;;;;9.90;5.55;;;;;;;18.04;62.12;96574.81;2087658;28;20454;-48
2023/01/17 02:05:51;;;;;;;8.43;5.57;;;;;;;18.06;62.15;96581.53;2087229;28;20052;-46
2023/01/17 02:06:59;;;;;;;;;;;;;;;17.96;62.48;96573.34;2088712;28;20052;-47
2023/01/17 02:08:03;;;;;;;6.78;5.28;;;;;;;18.00;62.35;96576.38;2088958;28;19920;-46
2023/01/17 02:09:07;;;;;;;7.07;5.15;;;;;;;17.99;62.33;96569.38;2086485;28;20071;-46
2023/01/17 02:10:09;;;;;;;6.65;4.53;;;;;;;18.01;62.25;96570.75;2087586;28;20048;-50
2023/01/17 02:11:11;;;;;;;6.85;4.63;;;;;;;18.03;62.18;96575.88;2088069;28;20417;-48
2023/01/17 02:12:12;;;;;;;5.32;4.82;;;;;;;18.02;62.20;96572.34;2087537;28;20052;-46
2023/01/17 02:13:15;;;;;;;;;;;;;;;17.92;62.50;96564.19;2085549;28;20051;-47
2023/01/17 02:14:17;;;;;;;8.77;4.85;;;;;;;17.94;62.42;96569.31;2086714;28;20562;-47
2023/01/17 02:15:22;;;;;;;7.53;6.10;;;;;;;17.96;62.35;96565.31;2089053;28;20062;-47
2023/01/17 02:16:35;;;;;;;8.52;5.45;;;;;;;17.95;62.21;96561.03;2096170;28;20535;-47
2023/01/17 02:17:49;;;;;;;7.45;5.28;;;;;;;17.96;62.05;96562.63;2090686;28;20049;-47
2023/01/17 02:18:58;;;;;;;5.72;5.03;;;;;;;17.99;62.28;96555.97;2084707;28;20044;-47
2023/01/17 02:20:43;;;;;;;6.65;4.80;;;;;;;17.86;62.50;96557.97;2086573;28;20123;-49
2023/01/17 02:21:55;;;;;;;7.28;4.60;;;;;;;17.85;62.55;96545.59;2093909;28;20686;-49
2023/01/17 02:23:22;;;;;;;7.78;5.22;;;;;;;17.86;62.35;96546.44;2093581;28;20041;-47
2023/01/17 02:24:44;;;;;;;5.32;4.60;;;;;;;17.82;62.40;96553.34;2096733;28;20696;-46
2023/01/17 02:26:19;;;;;;;7.07;4.70;;;;;;;17.83;62.45;96549.63;2094512;28;20056;-48
2023/01/17 02:27:24;;;;;;;6.85;3.80;;;;;;;17.83;62.40;96530.84;2093418;28;20173;-48
2023/01/17 02:28:43;;;;;;;8.32;5.20;;;;;;;17.85;62.35;96537.56;2094682;28;20044;-50
2023/01/17 02:30:18;;;;;;;9.50;4.60;;;;;;;17.83;62.47;96538.88;2096022;28;20053;-47
2023/01/17 02:31:26;;;;;;;6.55;4.93;;;;;;;17.84;62.34;96541.31;2094064;28;20043;-47
2023/01/17 02:32:43;;;;;;;8.13;5.25;;;;;;;17.84;62.40;96535.94;2095579;28;20135;-47
2023/01/17 02:33:55;;;;;;;7.15;4.50;;;;;;;17.82;62.42;96530.00;2093480;28;20062;-47
2023/01/17 02:35:04;;;;;;;6.72;5.53;;;;;;;17.84;62.45;96527.09;2092801;28;20040;-48
2023/01/17 02:36:14;;;;;;;6.22;4.68;;;;;;;17.82;62.43;96532.69;2094803;28;20110;-47
2023/01/17 02:37:21;;;;;;;8.68;5.50;;;;;;;17.80;62.23;96526.78;2094244;28;21071;-46
2023/01/17 02:38:32;;;;;;;8.48;4.65;;;;;;;17.82;62.42;96523.84;2092615;28;20052;-46
2023/01/17 02:39:38;;;;;;;7.32;4.93;;;;;;;17.84;62.24;96519.03;2093763;28;20055;-47
2023/01/17 02:40:45;;;;;;;6.05;4.85;;;;;;;17.82;62.46;96529.19;2093663;28;21113;-47
2023/01/17 02:41:50;;;;;;;8.00;5.00;;;;;;;17.83;62.46;96536.22;2094719;28;21527;-48
2023/01/17 02:42:58;;;;;;;9.18;5.30;;;;;;;17.82;62.46;96529.19;2095159;28;21052;-46
2023/01/17 02:44:01;;;;;;;8.23;5.78;;;;;;;17.79;62.45;96524.34;2093099;28;20044;-51
2023/01/17 02:45:03;;;;;;;6.88;4.53;;;;;;;17.77;62.51;96531.78;2094657;28;20067;-47
2023/01/17 02:46:06;;;;;;;6.13;4.50;;;;;;;17.79;62.40;96524.34;2095187;28;21463;-47
2023/01/17 02:47:21;;;;;;;6.70;4.53;;;;;;;17.76;62.29;96530.97;2093763;28;20048;-47
2023/01/17 02:48:28;;;;;;;6.25;4.47;;;;;;;17.78;62.33;96522.69;2094296;28;20058;-47
2023/01/17 02:49:31;;;;;;;6.80;5.15;;;;;;;17.74;62.40;96521.56;2096661;28;20047;-48
2023/01/17 02:50:47;;;;;;;7.35;4.57;;;;;;;17.74;62.35;96516.19;2093612;28;20044;-46
2023/01/17 02:52:07;;;;;;;11.30;5.60;;;;;;;17.68;62.84;96520.69;2086698;28;21901;-47
2023/01/17 02:53:30;;;;;;;7.53;5.80;;;;;;;17.70;62.50;96515.09;2088070;28;20044;-46
2023/01/17 02:54:48;;;;;;;9.25;5.38;;;;;;;17.68;62.61;96523.38;2083206;28;20048;-50
2023/01/17 02:55:56;;;;;;;7.00;5.05;;;;;;;17.67;62.57;96512.91;2091295;28;20843;-47
2023/01/17 02:57:18;;;;;;;6.13;4.57;;;;;;;17.63;62.65;96516.09;2084379;28;20434;-47
2023/01/17 02:58:36;;;;;;;6.25;5.32;;;;;;;17.63;62.80;96510.72;2085632;28;21363;-47
2023/01/17 02:59:47;;;;;;;8.07;5.22;;;;;;;17.66;62.64;96504.03;2086304;28;20050;-47
2023/01/17 03:01:02;;;;;;;7.22;5.00;;;;;;;17.64;62.65;96509.66;2087263;28;22232;-48
2023/01/17 03:02:15;;;;;;;5.65;4.53;;;;;;;17.64;62.64;96514.22;2090855;28;20122;-48
2023/01/17 03:03:25;;;;;;;6.35;4.78;;;;;;;17.63;62.53;96510.72;2088292;28;20725;-46
2023/01/17 03:04:35;;;;;;;6.78;4.72;;;;;;;17.61;62.61;96514.72;2086768;28;20055;-46
2023/01/17 03:05:43;;;;;;;7.97;5.35;;;;;;;17.63;62.54;96518.78;2086714;28;20074;-48
2023/01/17 03:06:48;;;;;;;5.65;4.28;;;;;;;17.62;62.46;96521.69;2085237;28;20053;-47
2023/01/17 03:07:50;;;;;;;7.03;5.55;;;;;;;17.61;62.58;96518.19;2086819;28;20071;-47
2023/01/17 03:08:54;;;;;;;7.10;5.18;;;;;;;17.64;62.49;96524.94;2085119;28;20055;-47
2023/01/17 03:09:58;;;;;;;6.55;5.10;;;;;;;17.60;62.67;96513.88;2085794;28;20041;-47
2023/01/17 03:11:01;;;;;;;7.28;5.32;;;;;;;17.60;62.59;96513.88;2085478;28;20055;-46
2023/01/17 03:12:03;;;;;;;6.28;4.85;;;;;;;17.59;62.58;96509.59;2085569;28;20048;-48
2023/01/17 03:13:05;;;;;;;6.60;4.80;;;;;;;17.59;62.63;96514.16;2089125;28;20052;-46
2023/01/17 03:14:05;;;;;;;7.90;5.45;;;;;;;17.59;62.70;96509.59;2087314;28;20052;-46
2023/01/17 03:15:09;;;;;;;;;;;;;;;17.47;62.87;96510.75;2086816;28;20575;-49
2023/01/17 03:16:14;;;;;;;8.38;4.45;;;;;;;17.48;62.90;96513.19;2086936;28;20462;-46
2023/01/17 03:17:16;;;;;;;9.32;5.38;;;;;;;17.53;62.85;96515.16;2090250;28;20074;-46
2023/01/17 03:18:19;;;;;;;6.28;4.88;;;;;;;17.55;62.72;96510.31;2087894;28;20142;-47
2023/01/17 03:19:20;;;;;;;6.68;4.75;;;;;;;17.54;62.92;96506.03;2087513;28;20184;-48
2023/01/17 03:20:21;;;;;;;5.43;4.03;;;;;;;17.54;62.63;96501.47;2089569;28;20055;-47
2023/01/17 03:21:23;;;;;;;;;;;;;;;17.41;62.91;96505.34;2086967;28;20442;-46
2023/01/17 03:22:24;;;;;;;6.50;4.95;;;;;;;17.46;63.02;96498.41;2085379;28;20313;-47
2023/01/17 03:23:26;;;;;;;;;;;;;;;17.36;63.12;96504.47;2086374;28;20052;-46
2023/01/17 03:24:27;;;;;;;9.95;5.22;;;;;;;17.39;63.10;96504.78;2086466;28;19935;-46
2023/01/17 03:25:29;;;;;;;6.95;4.53;;;;;;;17.44;62.88;96501.38;2087402;28;20048;-48
2023/01/17 03:26:30;;;;;;;8.85;4.70;;;;;;;17.46;62.86;96504.59;2086836;28;20059;-48
2023/01/17 03:27:32;;;;;;;;;;;;;;;17.34;63.19;96493.97;2090457;28;20047;-46
2023/01/17 03:28:32;;;;;;;;;;;;;;;17.29;63.41;96503.81;2090012;28;19924;-48
2023/01/17 03:29:34;;;;;;;5.10;4.60;;;;;;;17.33;63.20;96497.72;2085908;28;19924;-47
2023/01/17 03:30:35;;;;;;;5.80;4.38;;;;;;;17.38;63.17;96503.16;2085514;28;20047;-46
2023/01/17 03:31:37;;;;;;;;;;;;;;;17.30;63.28;96500.06;2086570;28;20047;-46
2023/01/17 03:32:37;;;;;;;;;;;;;;;17.20;63.53;96504.25;2087641;28;19928;-48
2023/01/17 03:33:41;;;;;;;6.17;4.30;;;;;;;17.31;63.28;96507.88;2091421;28;19924;-48
2023/01/17 03:34:41;;;;;;;7.57;5.15;;;;;;;17.37;63.03;96501.53;2087343;28;20052;-46
2023/01/17 03:35:44;;;;;;;;;;;;;;;17.29;63.27;96501.13;2088303;28;20049;-46
2023/01/17 03:36:45;;;;;;;4.82;4.32;;;;;;;17.33;62.99;96494.25;2085834;28;20515;-46
2023/01/17 03:37:47;;;;;;;;;;;;;;;17.25;63.36;96505.38;2087658;28;20064;-46
2023/01/17 03:38:47;;;;;;;6.63;4.63;;;;;;;17.30;63.27;96494.72;2087070;28;19932;-46
2023/01/17 03:39:49;;;;;;;;;;;;;;;17.22;63.53;96503.16;2088313;28;20742;-48
2023/01/17 03:40:51;;;;;;;7.38;5.22;;;;;;;17.28;63.35;96502.22;2086225;28;21806;-47
2023/01/17 03:41:51;;;;;;;6.45;4.45;;;;;;;17.34;63.24;96495.84;2089150;28;21006;-47
2023/01/17 03:42:53;;;;;;;;;;;;;;;17.25;63.17;96486.63;2092576;28;20044;-47
2023/01/17 03:43:54;;;;;;;;;;;;;;;17.17;63.54;96496.69;2091189;28;19939;-47
2023/01/17 03:44:56;;;;;;;8.95;4.78;;;;;;;17.22;63.44;96493.28;2092194;28;20016;-48
2023/01/17 03:46:01;;;;;;;8.43;4.53;;;;;;;17.30;63.19;96484.84;2090453;28;20048;-46
2023/01/17 03:47:03;;;;;;;5.25;4.03;;;;;;;17.35;62.96;96478.72;2089477;28;20607;-47
2023/01/17 03:48:05;;;;;;;8.57;4.90;;;;;;;17.35;62.95;96482.19;2089358;28;20056;-46
2023/01/17 03:49:10;;;;;;;10.07;4.50;;;;;;;17.37;63.03;96484.63;2092083;28;20094;-50
2023/01/17 03:50:11;;;;;;;6.22;4.55;;;;;;;17.34;63.01;96479.78;2091856;28;20593;-50
2023/01/17 03:51:13;;;;;;;5.60;4.28;;;;;;;17.33;62.89;96468.25;2090549;28;20560;-46
2023/01/17 03:52:14;;;;;;;6.68;5.07;;;;;;;17.33;62.82;96464.78;2090445;28;20055;-48
2023/01/17 03:53:16;;;;;;;;;;;;;;;17.20;63.30;96479.31;2090249;28;20052;-48
2023/01/17 03:54:16;;;;;;;7.07;4.22;;;;;;;17.25;63.06;96465.19;2090346;28;19964;-48
2023/01/17 03:55:18;;;;;;;;;;;;;;;17.13;63.60;96467.97;2091033;28;20237;-47
2023/01/17 03:56:19;;;;;;;5.97;3.80;;;;;;;17.18;63.29;96470.72;2091282;28;20086;-47
2023/01/17 03:57:20;;;;;;;;;;;;;;;17.11;63.44;96459.38;2091759;28;20513;-47
2023/01/17 03:58:21;;;;;;;6.32;4.70;;;;;;;17.18;63.38;96462.69;2089686;28;19924;-46
2023/01/17 03:59:23;;;;;;;;;;;;;;;17.08;63.56;96458.00;2089495;28;20056;-47
2023/01/17 04:00:25;;;;;;;8.20;4.88;;;;;;;17.15;63.40;96450.59;2089456;28;19932;-47
2023/01/17 04:01:26;;;;;;;5.03;3.58;;;;;;;17.22;63.23;96445.06;2088840;28;20528;-47
2023/01/17 04:02:27;;;;;;;;;;;;;;;17.12;63.44;96444.91;2089897;28;20047;-48
2023/01/17 04:03:28;;;;;;;;;;;;;;;17.06;63.65;96461.97;2088500;28;19921;-48
2023/01/17 04:04:31;;;;;;;6.30;4.10;;;;;;;17.12;63.41;96456.44;2093404;28;19924;-46
2023/01/17 04:05:32;;;;;;;5.70;3.42;;;;;;;17.16;63.34;96449.53;2091262;28;20056;-49
2023/01/17 04:06:34;;;;;;;;;;;;;;;17.09;63.62;96446.22;2089921;28;20074;-50
2023/01/17 04:07:35;;;;;;;;;;;;;;;17.01;63.88;96441.28;2088301;28;19928;-48
2023/01/17 04:08:36;;;;;;;;;;;;;;;16.97;63.94;96437.50;2088322;28;19927;-46
2023/01/17 04:09:37;;;;;;;9.30;4.75;;;;;;;17.04;63.73;96438.13;2091480;28;20366;-47
2023/01/17 04:10:38;;;;;;;8.02;4.57;;;;;;;17.10;63.47;96429.09;2088814;28;20043;-47
2023/01/17 04:11:40;;;;;;;;;;;;;;;17.03;63.60;96420.44;2091148;28;20055;-46
2023/01/17 04:12:41;;;;;;;5.45;4.20;;;;;;;17.09;63.56;96437.38;2090335;28;19931;-48
2023/01/17 04:13:42;;;;;;;;;;;;;;;17.04;63.63;96445.34;2090442;28;20054;-47
2023/01/17 04:14:43;;;;;;;;;;;;;;;16.98;63.92;96439.09;2089991;28;19924;-45
2023/01/17 04:15:47;;;;;;;5.50;4.38;;;;;;;17.07;63.53;96442.97;2093124;28;19924;-46
2023/01/17 04:16:48;;;;;;;4.55;4.15;;;;;;;17.12;63.37;96442.25;2090158;28;20052;-46
2023/01/17 04:17:49;;;;;;;;;;;;;;;17.03;63.52;96444.53;2093291;28;20044;-48
2023/01/17 04:18:50;;;;;;;6.22;4.53;;;;;;;17.08;63.44;96435.78;2095927;28;19925;-47
2023/01/17 04:19:53;;;;;;;;;;;;;;;16.98;63.77;96433.75;2096386;28;20123;-46
2023/01/17 04:20:54;;;;;;;9.77;4.75;;;;;;;17.06;63.59;96440.56;2096003;28;20562;-47
2023/01/17 04:21:56;;;;;;;;;;;;;;;17.01;63.71;96438.59;2097255;28;20051;-52
2023/01/17 04:22:57;;;;;;;6.47;4.53;;;;;;;17.05;63.54;96434.41;2096081;28;19925;-48
2023/01/17 04:23:58;;;;;;;;;;;;;;;16.98;63.76;96439.09;2096346;28;20264;-46
2023/01/17 04:24:59;;;;;;;;;;;;;;;16.91;63.82;96433.09;2095530;28;19928;-48
2023/01/17 04:26:02;;;;;;;5.30;4.13;;;;;;;16.99;63.80;96427.31;2097998;28;19934;-49
2023/01/17 04:27:03;;;;;;;6.90;4.65;;;;;;;17.03;63.62;96420.44;2091771;28;20743;-48
2023/01/17 04:28:06;;;;;;;6.38;3.85;;;;;;;17.08;63.37;96425.88;2096233;28;20562;-48
2023/01/17 04:29:06;;;;;;;6.82;4.20;;;;;;;17.10;63.27;96422.91;2098636;28;20044;-48
2023/01/17 04:30:09;;;;;;;;;;;;;;;17.00;63.45;96425.47;2097135;28;20048;-47
2023/01/17 04:31:13;;;;;;;6.70;4.30;;;;;;;17.04;63.44;96427.41;2098094;28;19924;-47
2023/01/17 04:32:15;;;;;;;6.07;4.55;;;;;;;17.08;63.33;96411.66;2094678;28;20052;-46
2023/01/17 04:33:17;;;;;;;4.88;3.38;;;;;;;17.08;63.26;96422.38;2095618;28;20056;-47
2023/01/17 04:34:19;;;;;;;6.05;4.30;;;;;;;17.08;63.21;96427.75;2098419;28;20465;-47
2023/01/17 04:35:21;;;;;;;5.88;5.15;;;;;;;17.10;63.25;96430.97;2096376;28;20049;-46
2023/01/17 04:36:23;;;;;;;4.65;4.07;;;;;;;17.09;63.27;96427.47;2098240;28;20059;-46
2023/01/17 04:37:24;;;;;;;5.47;3.90;;;;;;;17.10;63.05;96426.41;2095268;28;20430;-48
2023/01/17 04:38:25;;;;;;;;;;;;;;;17.01;63.49;96421.72;2098257;28;20044;-46
2023/01/17 04:39:26;;;;;;;;;;;;;;;16.93;63.83;96420.28;2100155;28;19980;-47
2023/01/17 04:40:28;;;;;;;6.83;3.83;;;;;;;16.98;63.54;96417.69;2099179;28;20000;-47
2023/01/17 04:41:29;;;;;;;7.05;3.88;;;;;;;17.03;63.46;96423.09;2098207;28;20078;-47
2023/01/17 04:42:30;;;;;;;;;;;;;;;16.93;63.55;96422.97;2094354;28;20441;-47
2023/01/17 04:43:31;;;;;;;;;;;;;;;16.87;63.86;96421.28;2094269;28;19927;-46
2023/01/17 04:44:33;;;;;;;5.47;3.83;;;;;;;16.92;63.75;96416.00;2095904;28;19943;-47
2023/01/17 04:45:34;;;;;;;7.50;4.63;;;;;;;16.98;63.54;96406.97;2094250;28;20048;-46
2023/01/17 04:46:35;;;;;;;;;;;;;;;16.88;63.67;96410.34;2096094;28;20594;-47
2023/01/17 04:47:36;;;;;;;5.50;4.13;;;;;;;16.92;63.63;96414.13;2094503;28;19927;-46
2023/01/17 04:48:38;;;;;;;;;;;;;;;16.86;63.75;96412.44;2087118;28;20054;-46
2023/01/17 04:49:38;;;;;;;;;;;;;;;16.81;63.92;96411.56;2087869;28;20487;-48
2023/01/17 04:50:42;;;;;;;7.83;5.17;;;;;;;16.89;63.73;96398.56;2093904;28;19928;-46
2023/01/17 04:51:43;;;;;;;7.45;3.95;;;;;;;16.93;63.61;96398.84;2088714;28;20059;-45
2023/01/17 04:52:45;;;;;;;4.78;4.07;;;;;;;16.98;63.32;96396.25;2087390;28;20051;-46
2023/01/17 04:53:45;;;;;;;5.18;3.90;;;;;;;17.01;63.29;96395.75;2085735;28;22251;-46
2023/01/17 04:54:48;;;;;;;;;;;;;;;16.89;63.63;96389.72;2091701;28;20059;-47
2023/01/17 04:55:49;;;;;;;7.30;4.28;;;;;;;16.91;63.55;96393.78;2095706;28;19921;-47
2023/01/17 04:56:50;;;;;;;;;;;;;;;16.84;63.74;96386.97;2093074;28;20105;-46
2023/01/17 04:57:51;;;;;;;5.13;3.95;;;;;;;16.89;63.61;96387.84;2091569;28;19935;-47
2023/01/17 04:58:53;;;;;;;;;;;;;;;16.81;63.80;96390.13;2093465;28;20679;-47
2023/01/17 04:59:53;;;;;;;;;;;;;;;16.74;64.13;96384.91;2088230;28;19920;-48
2023/01/17 05:00:55;;;;;;;6.00;3.83;;;;;;;16.80;63.98;96394.69;2086725;28;20495;-47
2023/01/17 05:01:56;;;;;;;6.05;4.38;;;;;;;16.85;63.73;96393.94;2082202;28;20083;-49
2023/01/17 05:02:57;;;;;;;;;;;;;;;16.81;63.80;96390.13;2084580;28;20051;-47
2023/01/17 05:03:58;;;;;;;4.78;4.00;;;;;;;16.85;63.67;96383.22;2085381;28;19935;-46
2023/01/17 05:05:00;;;;;;;;;;;;;;;16.79;63.87;96386.88;2089413;28;20059;-49
2023/01/17 05:06:02;;;;;;;5.05;4.00;;;;;;;16.87;63.62;96383.78;2089740;28;19928;-46
2023/01/17 05:07:05;;;;;;;4.75;3.90;;;;;;;16.90;63.38;96368.03;2087213;28;20059;-47
2023/01/17 05:08:06;;;;;;;4.65;3.88;;;;;;;16.92;63.44;96371.28;2087572;28;20048;-48
2023/01/17 05:09:07;;;;;;;;;;;;;;;16.81;63.75;96372.19;2088009;28;20569;-48
2023/01/17 05:10:09;;;;;;;4.53;3.80;;;;;;;16.84;63.73;96368.22;2091296;28;20409;-48
2023/01/17 05:11:11;;;;;;;5.20;4.15;;;;;;;16.88;63.51;96372.00;2089293;28;20140;-48
2023/01/17 05:12:12;;;;;;;6.25;4.25;;;;;;;16.90;63.42;96361.88;2088601;28;20402;-46
2023/01/17 05:13:14;;;;;;;;;;;;;;;16.79;63.80;96357.44;2089912;28;20052;-47
2023/01/17 05:14:15;;;;;;;6.32;3.55;;;;;;;16.83;63.65;96366.63;2085092;28;19935;-47
2023/01/17 05:15:16;;;;;;;;;;;;;;;16.74;63.92;96356.28;2087628;28;20056;-46
2023/01/17 05:16:18;;;;;;;;;;;;;;;16.70;63.98;96357.03;2091415;28;19924;-47
2023/01/17 05:17:19;;;;;;;8.20;4.18;;;;;;;16.79;63.82;96349.41;2094943;28;20374;-47
2023/01/17 05:18:20;;;;;;;;;;;;;;;16.70;64.05;96349.78;2092890;28;20775;-46
2023/01/17 05:19:22;;;;;;;6.05;4.00;;;;;;;16.78;63.68;96343.25;2093701;28;19924;-45
2023/01/17 05:20:25;;;;;;;5.85;4.05;;;;;;;16.84;63.62;96339.56;2093559;28;20056;-47
2023/01/17 05:21:31;;;;;;;6.35;3.80;;;;;;;16.83;63.55;96343.31;2096752;28;21007;-46
2023/01/17 05:22:32;;;;;;;7.30;4.72;;;;;;;16.86;63.46;96347.38;2092851;28;20040;-46
2023/01/17 05:23:33;;;;;;;;;;;;;;;16.74;63.65;96350.09;2095173;28;20557;-47
2023/01/17 05:24:34;;;;;;;5.22;3.40;;;;;;;16.78;63.73;96351.28;2088669;28;19928;-46
2023/01/17 05:25:36;;;;;;;;;;;;;;;16.71;63.95;96353.28;2087907;28;20524;-47
2023/01/17 05:26:37;;;;;;;5.43;3.58;;;;;;;16.78;63.66;96350.47;2085328;28;19955;-49
2023/01/17 05:27:39;;;;;;;6.80;4.50;;;;;;;16.80;63.59;96346.50;2090564;28;20453;-50
2023/01/17 05:28:40;;;;;;;5.55;3.92;;;;;;;16.83;63.54;96350.56;2084663;28;20052;-48
2023/01/17 05:29:41;;;;;;;4.07;3.65;;;;;;;16.86;63.33;96347.38;2086581;28;20058;-48
2023/01/17 05:30:43;;;;;;;;;;;;;;;16.73;63.85;96349.31;2087309;28;20055;-47
2023/01/17 05:31:44;;;;;;;7.00;3.60;;;;;;;16.78;63.61;96353.16;2085311;28;19924;-48
2023/01/17 05:32:48;;;;;;;;;;;;;;;16.65;64.04;96359.63;2087105;28;20048;-49
2023/01/17 05:33:48;;;;;;;5.47;4.28;;;;;;;16.70;63.90;96355.16;2087048;28;20011;-48
2023/01/17 05:34:50;;;;;;;;;;;;;;;16.66;63.88;96351.38;2088353;28;20055;-48
2023/01/17 05:35:51;;;;;;;4.50;3.47;;;;;;;16.72;63.75;96357.59;2086611;28;19935;-48
2023/01/17 05:36:55;;;;;;;5.97;4.18;;;;;;;16.76;63.64;96350.69;2088892;28;20937;-46
2023/01/17 05:37:56;;;;;;;4.50;3.92;;;;;;;16.77;63.58;96346.16;2087810;28;20078;-48
2023/01/17 05:38:57;;;;;;;;;;;;;;;16.67;63.82;96349.50;2086780;28;20070;-50
2023/01/17 05:39:58;;;;;;;;;;;;;;;16.58;64.01;96345.63;2088046;28;19939;-50
2023/01/17 05:41:00;;;;;;;5.87;4.20;;;;;;;16.65;64.04;96343.56;2088203;28;20383;-51
2023/01/17 05:42:01;;;;;;;5.82;4.20;;;;;;;16.73;63.67;96335.13;2087318;27;20190;-49
2023/01/17 05:43:03;;;;;;;;;;;;;;;16.65;63.86;96333.66;2086777;28;25247;-48
2023/01/17 05:44:04;;;;;;;4.57;3.72;;;;;;;16.71;63.68;96331.88;2087133;28;20018;-49
2023/01/17 05:45:08;;;;;;;5.93;3.75;;;;;;;16.73;63.65;96330.56;2087924;28;20143;-49
2023/01/17 05:46:10;;;;;;;7.85;5.18;;;;;;;16.77;63.60;96327.41;2087517;28;20052;-49
2023/01/17 05:47:11;;;;;;;5.93;3.78;;;;;;;16.77;63.30;96328.25;2090111;27;20047;-48
2023/01/17 05:48:12;;;;;;;;;;;;;;;16.67;63.80;96331.56;2087160;28;20574;-47
2023/01/17 05:49:13;;;;;;;5.90;3.13;;;;;;;16.71;63.60;96327.31;2086518;28;20309;-49
2023/01/17 05:50:16;;;;;;;;;;;;;;;16.61;63.97;96327.19;2088933;28;20056;-51
2023/01/17 05:51:18;;;;;;;6.70;4.63;;;;;;;16.66;63.86;96323.75;2089344;28;19920;-48
2023/01/17 05:52:20;;;;;;;5.60;3.55;;;;;;;16.71;63.66;96315.81;2091116;28;20040;-48
2023/01/17 05:53:22;;;;;;;5.65;3.90;;;;;;;16.74;63.63;96321.50;2087324;28;20040;-50
2023/01/17 05:54:23;;;;;;;5.03;3.47;;;;;;;16.75;63.57;96312.41;2087674;28;20063;-50
2023/01/17 05:55:25;;;;;;;;;;;;;;;16.62;63.98;96312.75;2088874;28;20107;-50
2023/01/17 05:56:26;;;;;;;5.03;3.55;;;;;;;16.67;63.59;96312.81;2085853;28;19924;-48
2023/01/17 05:57:28;;;;;;;;;;;;;;;16.59;63.85;96307.91;2089735;28;20123;-50
2023/01/17 05:58:29;;;;;;;4.95;3.33;;;;;;;16.65;63.76;96301.53;2088160;28;19928;-47
2023/01/17 05:59:30;;;;;;;;;;;;;;;16.58;63.88;96306.28;2087894;28;20040;-50
2023/01/17 06:00:31;;;;;;;4.97;3.30;;;;;;;16.62;63.94;96291.34;2084808;28;19924;-49
2023/01/17 06:01:33;;;;;;;5.90;4.05;;;;;;;16.69;63.72;96294.66;2087042;28;20059;-50
2023/01/17 06:02:34;;;;;;;6.03;4.13;;;;;;;16.71;63.48;96292.53;2087513;28;20041;-46
2023/01/17 06:03:35;;;;;;;;;;;;;;;16.62;63.78;96287.84;2085941;28;20048;-47
2023/01/17 06:04:36;;;;;;;6.57;4.07;;;;;;;16.66;63.81;96287.13;2090660;28;19936;-53
2023/01/17 06:05:38;;;;;;;;;;;;;;;16.59;63.96;96283.00;2089474;28;20059;-46
2023/01/17 06:06:40;;;;;;;4.28;3.60;;;;;;;16.63;63.80;96282.28;2092110;28;21944;-50
2023/01/17 06:07:45;;;;;;;3.58;3.15;;;;;;;16.68;63.62;96274.28;2088466;28;20195;-47
2023/01/17 06:08:47;;;;;;;6.88;4.05;;;;;;;16.69;63.69;96270.56;2085864;28;20052;-49
2023/01/17 06:09:48;;;;;;;3.88;3.10;;;;;;;16.71;63.51;96268.44;2093048;27;20043;-48
2023/01/17 06:10:49;;;;;;;;;;;;;;;16.62;63.80;96264.56;2087992;28;20551;-49
2023/01/17 06:11:50;;;;;;;4.30;2.97;;;;;;;16.64;63.71;96257.13;2087115;28;20503;-49
2023/01/17 06:13:00;;;;;;;4.00;3.55;;;;;;;16.69;63.58;96264.41;2085839;28;20445;-49
2023/01/17 06:14:02;;;;;;;4.75;3.20;;;;;;;16.69;63.56;96259.88;2086439;28;20056;-51
2023/01/17 06:15:03;;;;;;;3.95;3.35;;;;;;;16.72;63.48;96264.72;2090201;28;20123;-50
2023/01/17 06:16:06;;;;;;;4.72;3.85;;;;;;;16.74;63.45;96261.78;2095497;28;20048;-49
2023/01/17 06:17:07;;;;;;;4.88;4.07;;;;;;;16.73;63.21;96260.97;2093727;28;20044;-49
2023/01/17 06:18:09;;;;;;;;;;;;;;;16.60;63.77;96253.31;2089509;28;20048;-48
2023/01/17 06:19:10;;;;;;;4.68;3.70;;;;;;;16.63;63.70;96255.50;2092297;28;20619;-47
2023/01/17 06:20:12;;;;;;;;;;;;;;;16.54;63.89;96251.63;2095444;28;20055;-47
2023/01/17 06:21:13;;;;;;;6.55;3.20;;;;;;;16.63;63.81;96252.00;2092025;28;19920;-48
2023/01/17 06:22:14;;;;;;;;;;;;;;;16.53;63.92;96250.81;2093636;28;20048;-47
2023/01/17 06:23:16;;;;;;;7.05;3.63;;;;;;;16.59;63.71;96249.03;2092113;28;19928;-46
2023/01/17 06:24:18;;;;;;;4.85;3.58;;;;;;;16.64;63.64;96240.25;2093653;28;20059;-47
2023/01/17 06:25:19;;;;;;;4.65;3.58;;;;;;;16.68;63.54;96236.00;2093789;28;20158;-46
2023/01/17 06:26:20;;;;;;;;;;;;;;;16.60;63.59;96233.75;2094657;28;20069;-46
2023/01/17 06:27:21;;;;;;;4.88;3.20;;;;;;;16.63;63.56;96235.94;2093502;28;19932;-47